sensor_id;sensor_type;location;lat;lon;timestamp;temperature;humidity
68701;DHT22;55682;51.114;5.882;2023-07-31T00:01:29;18.67;81.76
68701;DHT22;55682;51.114;5.882;2023-07-31T00:03:55;18.69;81.38
68701;DHT22;55682;51.114;5.882;2023-07-31T00:06:20;18.65;81.47
68701;DHT22;55682;51.114;5.882;2023-07-31T00:08:46;18.69;81.05
68701;DHT22;55682;51.114;5.882;2023-07-31T00:11:12;18.63;81.22
68701;DHT22;55682;51.114;5.882;2023-07-31T00:13:37;18.61;80.85
68701;DHT22;55682;51.114;5.882;2023-07-31T00:16:03;18.64;80.59
68701;DHT22;55682;51.114;5.882;2023-07-31T00:18:29;18.62;80.78
68701;DHT22;55682;51.114;5.882;2023-07-31T00:20:54;18.61;81.01
68701;DHT22;55682;51.114;5.882;2023-07-31T00:23:20;18.65;80.74
68701;DHT22;55682;51.114;5.882;2023-07-31T00:25:45;18.68;80.68
68701;DHT22;55682;51.114;5.882;2023-07-31T00:28:11;18.70;80.45
68701;DHT22;55682;51.114;5.882;2023-07-31T00:30:38;18.72;80.52
68701;DHT22;55682;51.114;5.882;2023-07-31T00:33:03;18.62;80.96
68701;DHT22;55682;51.114;5.882;2023-07-31T00:35:29;18.62;81.13
68701;DHT22;55682;51.114;5.882;2023-07-31T00:37:57;18.55;81.25
68701;DHT22;55682;51.114;5.882;2023-07-31T00:40:23;18.51;81.54
68701;DHT22;55682;51.114;5.882;2023-07-31T00:42:48;18.64;80.72
68701;DHT22;55682;51.114;5.882;2023-07-31T00:45:14;18.47;81.51
68701;DHT22;55682;51.114;5.882;2023-07-31T00:47:40;18.47;81.24
68701;DHT22;55682;51.114;5.882;2023-07-31T00:50:07;18.34;81.83
68701;DHT22;55682;51.114;5.882;2023-07-31T00:52:33;18.35;81.40
68701;DHT22;55682;51.114;5.882;2023-07-31T00:55:00;18.28;81.24
68701;DHT22;55682;51.114;5.882;2023-07-31T00:57:25;18.33;80.90
68701;DHT22;55682;51.114;5.882;2023-07-31T00:59:51;18.30;80.92
68701;DHT22;55682;51.114;5.882;2023-07-31T01:02:17;18.27;81.14
68701;DHT22;55682;51.114;5.882;2023-07-31T01:04:44;18.29;81.07
68701;DHT22;55682;51.114;5.882;2023-07-31T01:07:17;18.33;81.01
68701;DHT22;55682;51.114;5.882;2023-07-31T01:10:07;18.37;80.99
68701;DHT22;55682;51.114;5.882;2023-07-31T01:12:34;18.48;80.27
68701;DHT22;55682;51.114;5.882;2023-07-31T01:15:08;18.46;80.32
68701;DHT22;55682;51.114;5.882;2023-07-31T01:17:38;18.41;80.50
68701;DHT22;55682;51.114;5.882;2023-07-31T01:25:42;18.48;80.40
68701;DHT22;55682;51.114;5.882;2023-07-31T01:28:19;18.51;80.45
68701;DHT22;55682;51.114;5.882;2023-07-31T01:30:48;18.54;80.37
68701;DHT22;55682;51.114;5.882;2023-07-31T01:33:16;18.51;80.60
68701;DHT22;55682;51.114;5.882;2023-07-31T01:35:44;18.53;80.69
68701;DHT22;55682;51.114;5.882;2023-07-31T01:38:10;18.50;80.90
68701;DHT22;55682;51.114;5.882;2023-07-31T01:40:37;18.49;80.91
68701;DHT22;55682;51.114;5.882;2023-07-31T01:43:03;18.44;81.39
68701;DHT22;55682;51.114;5.882;2023-07-31T01:45:28;18.51;81.18
68701;DHT22;55682;51.114;5.882;2023-07-31T01:47:54;18.43;81.65
68701;DHT22;55682;51.114;5.882;2023-07-31T01:50:20;18.56;80.78
68701;DHT22;55682;51.114;5.882;2023-07-31T01:52:45;18.53;81.15
68701;DHT22;55682;51.114;5.882;2023-07-31T01:55:11;18.51;81.42
68701;DHT22;55682;51.114;5.882;2023-07-31T01:57:37;18.52;81.62
68701;DHT22;55682;51.114;5.882;2023-07-31T02:00:03;18.54;81.52
68701;DHT22;55682;51.114;5.882;2023-07-31T02:02:37;18.54;81.74
68701;DHT22;55682;51.114;5.882;2023-07-31T02:05:03;18.61;81.69
68701;DHT22;55682;51.114;5.882;2023-07-31T02:07:29;18.64;81.46
68701;DHT22;55682;51.114;5.882;2023-07-31T02:09:54;18.67;81.45
68701;DHT22;55682;51.114;5.882;2023-07-31T02:12:20;18.63;81.72
68701;DHT22;55682;51.114;5.882;2023-07-31T02:14:46;18.67;81.51
68701;DHT22;55682;51.114;5.882;2023-07-31T02:17:11;18.74;81.23
68701;DHT22;55682;51.114;5.882;2023-07-31T02:19:37;18.65;81.80
68701;DHT22;55682;51.114;5.882;2023-07-31T02:22:03;18.81;81.04
68701;DHT22;55682;51.114;5.882;2023-07-31T02:24:28;18.71;81.37
68701;DHT22;55682;51.114;5.882;2023-07-31T02:26:54;18.72;81.38
68701;DHT22;55682;51.114;5.882;2023-07-31T02:29:20;18.63;81.77
68701;DHT22;55682;51.114;5.882;2023-07-31T02:31:45;18.71;81.47
68701;DHT22;55682;51.114;5.882;2023-07-31T02:34:11;18.80;80.51
68701;DHT22;55682;51.114;5.882;2023-07-31T02:36:36;18.76;81.14
68701;DHT22;55682;51.114;5.882;2023-07-31T02:39:02;18.81;80.74
68701;DHT22;55682;51.114;5.882;2023-07-31T02:41:28;18.80;80.89
68701;DHT22;55682;51.114;5.882;2023-07-31T02:43:53;18.84;80.46
68701;DHT22;55682;51.114;5.882;2023-07-31T02:46:20;18.79;80.81
68701;DHT22;55682;51.114;5.882;2023-07-31T02:48:46;18.86;80.38
68701;DHT22;55682;51.114;5.882;2023-07-31T02:51:12;18.72;80.50
68701;DHT22;55682;51.114;5.882;2023-07-31T02:53:38;18.79;80.46
68701;DHT22;55682;51.114;5.882;2023-07-31T02:56:04;18.87;80.30
68701;DHT22;55682;51.114;5.882;2023-07-31T02:58:29;18.82;80.74
68701;DHT22;55682;51.114;5.882;2023-07-31T03:00:55;18.88;80.32
68701;DHT22;55682;51.114;5.882;2023-07-31T03:03:21;18.91;80.24
68701;DHT22;55682;51.114;5.882;2023-07-31T03:05:46;19.01;79.73
68701;DHT22;55682;51.114;5.882;2023-07-31T03:08:12;18.91;80.28
68701;DHT22;55682;51.114;5.882;2023-07-31T03:10:37;18.88;80.33
68701;DHT22;55682;51.114;5.882;2023-07-31T03:13:04;18.84;80.68
68701;DHT22;55682;51.114;5.882;2023-07-31T03:15:29;18.86;80.78
68701;DHT22;55682;51.114;5.882;2023-07-31T03:17:55;18.82;80.94
68701;DHT22;55682;51.114;5.882;2023-07-31T03:20:21;18.93;80.33
68701;DHT22;55682;51.114;5.882;2023-07-31T03:22:46;18.83;80.84
68701;DHT22;55682;51.114;5.882;2023-07-31T03:25:12;18.85;80.78
68701;DHT22;55682;51.114;5.882;2023-07-31T03:27:38;18.89;80.78
68701;DHT22;55682;51.114;5.882;2023-07-31T03:30:04;18.89;80.74
68701;DHT22;55682;51.114;5.882;2023-07-31T03:32:29;18.92;80.69
68701;DHT22;55682;51.114;5.882;2023-07-31T03:34:55;18.89;80.72
68701;DHT22;55682;51.114;5.882;2023-07-31T03:37:20;18.84;81.02
68701;DHT22;55682;51.114;5.882;2023-07-31T03:39:46;18.92;80.91
68701;DHT22;55682;51.114;5.882;2023-07-31T03:42:12;18.91;80.85
68701;DHT22;55682;51.114;5.882;2023-07-31T03:44:37;18.84;81.17
68701;DHT22;55682;51.114;5.882;2023-07-31T03:47:04;18.84;81.15
68701;DHT22;55682;51.114;5.882;2023-07-31T03:49:30;18.84;81.17
68701;DHT22;55682;51.114;5.882;2023-07-31T03:51:56;18.84;81.36
68701;DHT22;55682;51.114;5.882;2023-07-31T03:54:21;18.78;81.59
68701;DHT22;55682;51.114;5.882;2023-07-31T03:56:47;18.81;81.49
68701;DHT22;55682;51.114;5.882;2023-07-31T03:59:13;18.97;80.76
68701;DHT22;55682;51.114;5.882;2023-07-31T04:01:38;18.93;80.89
68701;DHT22;55682;51.114;5.882;2023-07-31T04:04:04;18.78;81.57
68701;DHT22;55682;51.114;5.882;2023-07-31T04:06:30;18.68;82.03
68701;DHT22;55682;51.114;5.882;2023-07-31T04:08:56;18.79;81.84
68701;DHT22;55682;51.114;5.882;2023-07-31T04:11:22;18.86;81.11
68701;DHT22;55682;51.114;5.882;2023-07-31T04:13:47;18.85;81.24
68701;DHT22;55682;51.114;5.882;2023-07-31T04:16:13;18.91;80.98
68701;DHT22;55682;51.114;5.882;2023-07-31T04:18:39;18.95;80.54
68701;DHT22;55682;51.114;5.882;2023-07-31T04:21:04;18.97;80.69
68701;DHT22;55682;51.114;5.882;2023-07-31T04:23:30;18.96;80.68
68701;DHT22;55682;51.114;5.882;2023-07-31T04:25:56;18.93;80.79
68701;DHT22;55682;51.114;5.882;2023-07-31T04:28:21;18.81;80.97
68701;DHT22;55682;51.114;5.882;2023-07-31T04:30:47;19.11;79.92
68701;DHT22;55682;51.114;5.882;2023-07-31T04:33:13;18.95;80.72
68701;DHT22;55682;51.114;5.882;2023-07-31T04:35:39;19.06;80.23
68701;DHT22;55682;51.114;5.882;2023-07-31T04:38:04;19.10;79.86
68701;DHT22;55682;51.114;5.882;2023-07-31T04:40:30;19.08;80.03
68701;DHT22;55682;51.114;5.882;2023-07-31T04:42:56;19.07;80.04
68701;DHT22;55682;51.114;5.882;2023-07-31T04:45:21;19.13;79.71
68701;DHT22;55682;51.114;5.882;2023-07-31T04:47:47;19.14;79.62
68701;DHT22;55682;51.114;5.882;2023-07-31T04:50:13;19.16;79.53
68701;DHT22;55682;51.114;5.882;2023-07-31T04:52:38;19.14;79.62
68701;DHT22;55682;51.114;5.882;2023-07-31T04:55:04;19.22;79.38
68701;DHT22;55682;51.114;5.882;2023-07-31T04:57:30;19.15;79.59
68701;DHT22;55682;51.114;5.882;2023-07-31T04:59:55;19.14;79.62
68701;DHT22;55682;51.114;5.882;2023-07-31T05:02:21;19.23;79.13
68701;DHT22;55682;51.114;5.882;2023-07-31T05:04:47;19.15;79.49
68701;DHT22;55682;51.114;5.882;2023-07-31T05:07:12;19.12;79.67
68701;DHT22;55682;51.114;5.882;2023-07-31T05:09:38;19.13;79.49
68701;DHT22;55682;51.114;5.882;2023-07-31T05:12:05;19.07;79.90
68701;DHT22;55682;51.114;5.882;2023-07-31T05:14:31;19.07;80.01
68701;DHT22;55682;51.114;5.882;2023-07-31T05:16:57;19.03;80.38
68701;DHT22;55682;51.114;5.882;2023-07-31T05:19:22;18.93;81.17
68701;DHT22;55682;51.114;5.882;2023-07-31T05:21:48;18.79;81.92
68701;DHT22;55682;51.114;5.882;2023-07-31T05:24:13;18.79;82.10
68701;DHT22;55682;51.114;5.882;2023-07-31T05:26:39;18.88;82.07
68701;DHT22;55682;51.114;5.882;2023-07-31T05:29:05;18.84;82.44
68701;DHT22;55682;51.114;5.882;2023-07-31T05:31:30;18.79;82.76
68701;DHT22;55682;51.114;5.882;2023-07-31T05:33:57;18.73;82.91
68701;DHT22;55682;51.114;5.882;2023-07-31T05:36:23;18.71;83.38
68701;DHT22;55682;51.114;5.882;2023-07-31T05:38:49;18.69;83.14
68701;DHT22;55682;51.114;5.882;2023-07-31T05:41:15;18.61;84.02
68701;DHT22;55682;51.114;5.882;2023-07-31T05:43:41;18.71;83.85
68701;DHT22;55682;51.114;5.882;2023-07-31T05:46:08;18.80;83.35
68701;DHT22;55682;51.114;5.882;2023-07-31T05:48:34;18.59;84.20
68701;DHT22;55682;51.114;5.882;2023-07-31T05:51:00;18.73;83.84
68701;DHT22;55682;51.114;5.882;2023-07-31T05:53:26;18.89;83.01
68701;DHT22;55682;51.114;5.882;2023-07-31T05:55:52;18.79;83.49
68701;DHT22;55682;51.114;5.882;2023-07-31T05:58:17;18.93;83.26
68701;DHT22;55682;51.114;5.882;2023-07-31T06:00:43;18.89;83.14
68701;DHT22;55682;51.114;5.882;2023-07-31T06:03:08;18.84;83.60
68701;DHT22;55682;51.114;5.882;2023-07-31T06:05:34;18.94;83.34
68701;DHT22;55682;51.114;5.882;2023-07-31T06:08:00;19.12;82.15
68701;DHT22;55682;51.114;5.882;2023-07-31T06:10:26;19.08;82.65
68701;DHT22;55682;51.114;5.882;2023-07-31T06:12:52;19.07;82.50
68701;DHT22;55682;51.114;5.882;2023-07-31T06:15:19;19.01;82.94
68701;DHT22;55682;51.114;5.882;2023-07-31T06:17:45;19.00;83.00
68701;DHT22;55682;51.114;5.882;2023-07-31T06:20:11;18.99;83.13
68701;DHT22;55682;51.114;5.882;2023-07-31T06:22:36;19.05;82.81
68701;DHT22;55682;51.114;5.882;2023-07-31T06:25:02;19.10;82.75
68701;DHT22;55682;51.114;5.882;2023-07-31T06:27:28;19.15;82.43
68701;DHT22;55682;51.114;5.882;2023-07-31T06:29:54;19.14;82.27
68701;DHT22;55682;51.114;5.882;2023-07-31T06:32:19;19.13;82.03
68701;DHT22;55682;51.114;5.882;2023-07-31T06:34:45;19.03;82.53
68701;DHT22;55682;51.114;5.882;2023-07-31T06:37:11;19.16;82.20
68701;DHT22;55682;51.114;5.882;2023-07-31T06:39:36;19.12;82.26
68701;DHT22;55682;51.114;5.882;2023-07-31T06:42:03;19.05;82.53
68701;DHT22;55682;51.114;5.882;2023-07-31T06:44:29;18.87;83.07
68701;DHT22;55682;51.114;5.882;2023-07-31T06:46:55;18.89;82.78
68701;DHT22;55682;51.114;5.882;2023-07-31T06:49:21;18.85;82.84
68701;DHT22;55682;51.114;5.882;2023-07-31T06:51:46;18.78;83.16
68701;DHT22;55682;51.114;5.882;2023-07-31T06:54:12;18.67;83.78
68701;DHT22;55682;51.114;5.882;2023-07-31T06:56:37;18.69;83.78
68701;DHT22;55682;51.114;5.882;2023-07-31T06:59:03;18.70;84.00
68701;DHT22;55682;51.114;5.882;2023-07-31T07:01:29;18.69;83.94
68701;DHT22;55682;51.114;5.882;2023-07-31T07:03:55;18.84;83.70
68701;DHT22;55682;51.114;5.882;2023-07-31T07:06:22;18.79;83.74
68701;DHT22;55682;51.114;5.882;2023-07-31T07:08:48;18.73;84.06
68701;DHT22;55682;51.114;5.882;2023-07-31T07:11:14;18.64;84.47
68701;DHT22;55682;51.114;5.882;2023-07-31T07:13:40;18.66;84.15
68701;DHT22;55682;51.114;5.882;2023-07-31T07:16:05;18.71;83.76
68701;DHT22;55682;51.114;5.882;2023-07-31T07:18:31;18.76;84.05
68701;DHT22;55682;51.114;5.882;2023-07-31T07:20:57;18.82;84.13
68701;DHT22;55682;51.114;5.882;2023-07-31T07:23:23;18.66;84.27
68701;DHT22;55682;51.114;5.882;2023-07-31T07:25:49;18.67;84.79
68701;DHT22;55682;51.114;5.882;2023-07-31T07:28:15;18.65;85.00
68701;DHT22;55682;51.114;5.882;2023-07-31T07:30:41;18.63;85.59
68701;DHT22;55682;51.114;5.882;2023-07-31T07:33:06;18.76;84.27
68701;DHT22;55682;51.114;5.882;2023-07-31T07:35:35;18.86;84.09
68701;DHT22;55682;51.114;5.882;2023-07-31T07:38:04;18.93;83.71
68701;DHT22;55682;51.114;5.882;2023-07-31T07:40:30;18.80;84.04
68701;DHT22;55682;51.114;5.882;2023-07-31T07:42:55;18.91;83.62
68701;DHT22;55682;51.114;5.882;2023-07-31T07:45:21;18.91;83.52
68701;DHT22;55682;51.114;5.882;2023-07-31T07:47:47;19.06;82.35
68701;DHT22;55682;51.114;5.882;2023-07-31T07:50:12;19.09;82.34
68701;DHT22;55682;51.114;5.882;2023-07-31T07:52:38;19.24;81.83
68701;DHT22;55682;51.114;5.882;2023-07-31T07:55:04;19.37;81.07
68701;DHT22;55682;51.114;5.882;2023-07-31T07:57:29;19.29;81.50
68701;DHT22;55682;51.114;5.882;2023-07-31T07:59:55;19.13;82.77
68701;DHT22;55682;51.114;5.882;2023-07-31T08:02:22;19.29;82.62
68701;DHT22;55682;51.114;5.882;2023-07-31T08:04:47;19.33;82.37
68701;DHT22;55682;51.114;5.882;2023-07-31T08:07:13;19.39;82.17
68701;DHT22;55682;51.114;5.882;2023-07-31T08:09:39;19.26;82.46
68701;DHT22;55682;51.114;5.882;2023-07-31T08:12:06;19.16;82.75
68701;DHT22;55682;51.114;5.882;2023-07-31T08:14:32;19.02;83.69
68701;DHT22;55682;51.114;5.882;2023-07-31T08:16:57;19.21;82.97
68701;DHT22;55682;51.114;5.882;2023-07-31T08:19:23;19.17;83.28
68701;DHT22;55682;51.114;5.882;2023-07-31T08:21:48;19.01;83.22
68701;DHT22;55682;51.114;5.882;2023-07-31T08:24:14;19.05;83.63
68701;DHT22;55682;51.114;5.882;2023-07-31T08:26:40;19.08;83.94
68701;DHT22;55682;51.114;5.882;2023-07-31T08:29:05;19.00;84.50
68701;DHT22;55682;51.114;5.882;2023-07-31T08:31:31;19.18;83.77
68701;DHT22;55682;51.114;5.882;2023-07-31T08:33:57;19.37;82.61
68701;DHT22;55682;51.114;5.882;2023-07-31T08:36:22;19.27;83.12
68701;DHT22;55682;51.114;5.882;2023-07-31T08:38:48;19.39;83.12
68701;DHT22;55682;51.114;5.882;2023-07-31T08:41:15;19.60;82.59
68701;DHT22;55682;51.114;5.882;2023-07-31T08:43:47;19.68;82.13
68701;DHT22;55682;51.114;5.882;2023-07-31T08:46:14;19.92;81.79
68701;DHT22;55682;51.114;5.882;2023-07-31T08:48:43;19.97;80.35
68701;DHT22;55682;51.114;5.882;2023-07-31T08:51:11;19.95;80.71
68701;DHT22;55682;51.114;5.882;2023-07-31T08:53:36;19.82;81.04
68701;DHT22;55682;51.114;5.882;2023-07-31T08:56:02;19.84;81.36
68701;DHT22;55682;51.114;5.882;2023-07-31T08:58:32;20.02;81.37
68701;DHT22;55682;51.114;5.882;2023-07-31T09:01:01;20.41;79.82
68701;DHT22;55682;51.114;5.882;2023-07-31T09:03:27;20.68;79.17
68701;DHT22;55682;51.114;5.882;2023-07-31T09:05:56;21.36;75.79
68701;DHT22;55682;51.114;5.882;2023-07-31T09:08:22;21.04;76.37
68701;DHT22;55682;51.114;5.882;2023-07-31T09:10:48;20.68;77.15
68701;DHT22;55682;51.114;5.882;2023-07-31T09:13:17;20.33;79.19
68701;DHT22;55682;51.114;5.882;2023-07-31T09:15:45;20.10;79.95
68701;DHT22;55682;51.114;5.882;2023-07-31T09:18:10;20.05;79.54
68701;DHT22;55682;51.114;5.882;2023-07-31T09:20:37;19.88;80.65
68701;DHT22;55682;51.114;5.882;2023-07-31T09:23:10;19.71;81.10
68701;DHT22;55682;51.114;5.882;2023-07-31T09:25:37;19.68;80.82
68701;DHT22;55682;51.114;5.882;2023-07-31T09:28:08;19.63;81.24
68701;DHT22;55682;51.114;5.882;2023-07-31T09:30:48;19.79;81.15
68701;DHT22;55682;51.114;5.882;2023-07-31T09:33:15;19.92;79.98
68701;DHT22;55682;51.114;5.882;2023-07-31T09:35:41;19.90;80.10
68701;DHT22;55682;51.114;5.882;2023-07-31T09:38:09;19.96;79.78
68701;DHT22;55682;51.114;5.882;2023-07-31T09:40:38;20.05;79.68
68701;DHT22;55682;51.114;5.882;2023-07-31T09:43:09;20.16;79.75
68701;DHT22;55682;51.114;5.882;2023-07-31T09:45:42;20.58;78.64
68701;DHT22;55682;51.114;5.882;2023-07-31T09:48:09;20.81;75.89
68701;DHT22;55682;51.114;5.882;2023-07-31T09:50:40;21.29;75.95
68701;DHT22;55682;51.114;5.882;2023-07-31T09:53:07;21.60;74.49
68701;DHT22;55682;51.114;5.882;2023-07-31T09:55:34;21.78;72.54
68701;DHT22;55682;51.114;5.882;2023-07-31T09:58:05;21.87;73.41
68701;DHT22;55682;51.114;5.882;2023-07-31T10:00:31;21.95;72.87
68701;DHT22;55682;51.114;5.882;2023-07-31T10:03:04;22.18;72.03
68701;DHT22;55682;51.114;5.882;2023-07-31T10:05:36;21.93;71.81
68701;DHT22;55682;51.114;5.882;2023-07-31T10:08:03;21.65;72.53
68701;DHT22;55682;51.114;5.882;2023-07-31T10:10:30;21.35;73.45
68701;DHT22;55682;51.114;5.882;2023-07-31T10:12:57;21.33;73.80
68701;DHT22;55682;51.114;5.882;2023-07-31T10:15:24;21.17;74.09
68701;DHT22;55682;51.114;5.882;2023-07-31T10:17:52;20.96;74.87
68701;DHT22;55682;51.114;5.882;2023-07-31T10:20:20;20.91;75.11
68701;DHT22;55682;51.114;5.882;2023-07-31T10:22:46;21.07;74.73
68701;DHT22;55682;51.114;5.882;2023-07-31T10:25:15;21.08;74.15
68701;DHT22;55682;51.114;5.882;2023-07-31T10:27:41;21.24;74.05
68701;DHT22;55682;51.114;5.882;2023-07-31T10:30:11;21.30;73.77
68701;DHT22;55682;51.114;5.882;2023-07-31T10:32:41;21.18;74.04
68701;DHT22;55682;51.114;5.882;2023-07-31T10:35:08;21.32;73.82
68701;DHT22;55682;51.114;5.882;2023-07-31T10:37:40;21.32;73.67
68701;DHT22;55682;51.114;5.882;2023-07-31T10:40:18;21.40;73.04
68701;DHT22;55682;51.114;5.882;2023-07-31T10:42:49;21.51;72.82
68701;DHT22;55682;51.114;5.882;2023-07-31T10:45:36;21.65;72.32
68701;DHT22;55682;51.114;5.882;2023-07-31T10:48:05;21.48;72.93
68701;DHT22;55682;51.114;5.882;2023-07-31T10:50:32;21.43;72.19
68701;DHT22;55682;51.114;5.882;2023-07-31T10:53:01;21.34;72.68
68701;DHT22;55682;51.114;5.882;2023-07-31T10:57:57;21.18;73.74
68701;DHT22;55682;51.114;5.882;2023-07-31T11:00:29;21.29;73.22
68701;DHT22;55682;51.114;5.882;2023-07-31T11:03:06;21.27;73.57
68701;DHT22;55682;51.114;5.882;2023-07-31T11:08:24;22.21;71.15
68701;DHT22;55682;51.114;5.882;2023-07-31T11:11:04;22.73;67.90
68701;DHT22;55682;51.114;5.882;2023-07-31T11:13:51;23.14;67.43
68701;DHT22;55682;51.114;5.882;2023-07-31T11:16:24;23.32;66.20
68701;DHT22;55682;51.114;5.882;2023-07-31T11:18:51;23.30;66.11
68701;DHT22;55682;51.114;5.882;2023-07-31T11:21:21;22.85;66.94
68701;DHT22;55682;51.114;5.882;2023-07-31T11:23:57;22.57;68.39
68701;DHT22;55682;51.114;5.882;2023-07-31T11:26:24;22.24;69.10
68701;DHT22;55682;51.114;5.882;2023-07-31T11:28:51;21.91;70.77
68701;DHT22;55682;51.114;5.882;2023-07-31T11:31:17;21.54;72.53
68701;DHT22;55682;51.114;5.882;2023-07-31T11:33:44;21.42;73.38
68701;DHT22;55682;51.114;5.882;2023-07-31T11:36:17;21.34;74.02
68701;DHT22;55682;51.114;5.882;2023-07-31T11:38:43;21.38;73.70
68701;DHT22;55682;51.114;5.882;2023-07-31T11:41:09;21.27;74.80
68701;DHT22;55682;51.114;5.882;2023-07-31T11:43:34;21.38;74.01
68701;DHT22;55682;51.114;5.882;2023-07-31T11:46:02;21.23;74.80
68701;DHT22;55682;51.114;5.882;2023-07-31T11:48:31;21.24;74.92
68701;DHT22;55682;51.114;5.882;2023-07-31T11:51:01;21.40;74.55
68701;DHT22;55682;51.114;5.882;2023-07-31T11:53:33;21.53;74.18
68701;DHT22;55682;51.114;5.882;2023-07-31T11:56:01;21.42;74.33
68701;DHT22;55682;51.114;5.882;2023-07-31T11:58:31;21.49;74.62
68701;DHT22;55682;51.114;5.882;2023-07-31T12:00:58;21.62;74.38
68701;DHT22;55682;51.114;5.882;2023-07-31T12:03:25;21.75;73.55
68701;DHT22;55682;51.114;5.882;2023-07-31T12:05:53;21.79;73.67
68701;DHT22;55682;51.114;5.882;2023-07-31T12:08:21;21.78;73.85
68701;DHT22;55682;51.114;5.882;2023-07-31T12:10:50;21.84;74.11
68701;DHT22;55682;51.114;5.882;2023-07-31T12:13:25;22.05;72.83
68701;DHT22;55682;51.114;5.882;2023-07-31T12:15:56;22.08;72.32
68701;DHT22;55682;51.114;5.882;2023-07-31T12:18:24;21.96;72.77
68701;DHT22;55682;51.114;5.882;2023-07-31T12:20:58;22.14;72.83
68701;DHT22;55682;51.114;5.882;2023-07-31T12:23:28;22.47;71.13
68701;DHT22;55682;51.114;5.882;2023-07-31T12:31:05;23.09;69.32
68701;DHT22;55682;51.114;5.882;2023-07-31T12:33:33;23.14;69.71
68701;DHT22;55682;51.114;5.882;2023-07-31T12:36:02;23.24;67.72
68701;DHT22;55682;51.114;5.882;2023-07-31T12:38:28;23.30;68.26
68701;DHT22;55682;51.114;5.882;2023-07-31T12:40:54;23.45;67.25
68701;DHT22;55682;51.114;5.882;2023-07-31T12:43:20;23.57;66.66
68701;DHT22;55682;51.114;5.882;2023-07-31T12:45:45;23.80;66.25
68701;DHT22;55682;51.114;5.882;2023-07-31T12:48:13;24.05;65.07
68701;DHT22;55682;51.114;5.882;2023-07-31T12:50:39;24.17;63.74
68701;DHT22;55682;51.114;5.882;2023-07-31T12:53:05;24.19;63.95
68701;DHT22;55682;51.114;5.882;2023-07-31T12:55:32;24.44;63.11
68701;DHT22;55682;51.114;5.882;2023-07-31T12:58:00;24.62;62.16
68701;DHT22;55682;51.114;5.882;2023-07-31T13:00:26;24.69;62.67
68701;DHT22;55682;51.114;5.882;2023-07-31T13:02:52;24.91;60.54
68701;DHT22;55682;51.114;5.882;2023-07-31T13:05:18;24.78;61.48
68701;DHT22;55682;51.114;5.882;2023-07-31T13:07:48;24.76;60.68
68701;DHT22;55682;51.114;5.882;2023-07-31T13:10:15;24.50;61.08
68701;DHT22;55682;51.114;5.882;2023-07-31T13:12:40;24.54;61.97
68701;DHT22;55682;51.114;5.882;2023-07-31T13:15:07;24.50;60.36
68701;DHT22;55682;51.114;5.882;2023-07-31T13:17:32;24.45;61.30
68701;DHT22;55682;51.114;5.882;2023-07-31T13:19:59;24.08;62.31
68701;DHT22;55682;51.114;5.882;2023-07-31T13:22:25;23.88;63.24
68701;DHT22;55682;51.114;5.882;2023-07-31T13:24:51;23.74;63.24
68701;DHT22;55682;51.114;5.882;2023-07-31T13:27:17;23.54;64.12
68701;DHT22;55682;51.114;5.882;2023-07-31T13:29:45;23.51;64.44
68701;DHT22;55682;51.114;5.882;2023-07-31T13:32:11;23.41;64.56
68701;DHT22;55682;51.114;5.882;2023-07-31T13:34:36;23.32;64.65
68701;DHT22;55682;51.114;5.882;2023-07-31T13:37:02;23.13;65.59
68701;DHT22;55682;51.114;5.882;2023-07-31T13:39:28;23.08;65.53
68701;DHT22;55682;51.114;5.882;2023-07-31T13:41:53;22.87;66.21
68701;DHT22;55682;51.114;5.882;2023-07-31T13:44:19;22.70;66.99
68701;DHT22;55682;51.114;5.882;2023-07-31T13:46:45;22.66;67.06
68701;DHT22;55682;51.114;5.882;2023-07-31T13:49:10;22.70;67.05
68701;DHT22;55682;51.114;5.882;2023-07-31T13:51:36;22.60;67.17
68701;DHT22;55682;51.114;5.882;2023-07-31T13:54:03;22.58;66.71
68701;DHT22;55682;51.114;5.882;2023-07-31T13:56:28;22.52;67.43
68701;DHT22;55682;51.114;5.882;2023-07-31T13:58:54;22.65;67.60
68701;DHT22;55682;51.114;5.882;2023-07-31T14:01:20;22.56;67.84
68701;DHT22;55682;51.114;5.882;2023-07-31T14:03:45;22.62;67.87
68701;DHT22;55682;51.114;5.882;2023-07-31T14:06:11;22.62;67.93
68701;DHT22;55682;51.114;5.882;2023-07-31T14:08:36;22.72;67.69
68701;DHT22;55682;51.114;5.882;2023-07-31T14:11:02;22.92;66.69
68701;DHT22;55682;51.114;5.882;2023-07-31T14:13:28;22.94;66.72
68701;DHT22;55682;51.114;5.882;2023-07-31T14:15:53;22.99;66.17
68701;DHT22;55682;51.114;5.882;2023-07-31T14:18:19;22.93;66.25
68701;DHT22;55682;51.114;5.882;2023-07-31T14:20:45;22.97;66.24
68701;DHT22;55682;51.114;5.882;2023-07-31T14:23:11;22.85;66.59
68701;DHT22;55682;51.114;5.882;2023-07-31T14:25:36;22.93;66.17
68701;DHT22;55682;51.114;5.882;2023-07-31T14:28:02;22.80;65.30
68701;DHT22;55682;51.114;5.882;2023-07-31T14:30:28;22.96;65.37
68701;DHT22;55682;51.114;5.882;2023-07-31T14:32:53;22.76;65.85
68701;DHT22;55682;51.114;5.882;2023-07-31T14:35:19;22.67;65.88
68701;DHT22;55682;51.114;5.882;2023-07-31T14:37:45;22.57;65.74
68701;DHT22;55682;51.114;5.882;2023-07-31T14:40:12;22.37;66.88
68701;DHT22;55682;51.114;5.882;2023-07-31T14:42:39;22.28;67.04
68701;DHT22;55682;51.114;5.882;2023-07-31T14:45:05;22.17;67.02
68701;DHT22;55682;51.114;5.882;2023-07-31T14:47:31;22.20;67.25
68701;DHT22;55682;51.114;5.882;2023-07-31T14:50:00;22.03;68.44
68701;DHT22;55682;51.114;5.882;2023-07-31T14:52:26;22.04;69.13
68701;DHT22;55682;51.114;5.882;2023-07-31T14:54:52;21.93;70.21
68701;DHT22;55682;51.114;5.882;2023-07-31T14:57:18;21.84;71.08
68701;DHT22;55682;51.114;5.882;2023-07-31T14:59:44;21.77;71.87
68701;DHT22;55682;51.114;5.882;2023-07-31T15:02:10;21.54;72.70
68701;DHT22;55682;51.114;5.882;2023-07-31T15:04:36;21.39;74.25
68701;DHT22;55682;51.114;5.882;2023-07-31T15:07:02;21.18;75.06
68701;DHT22;55682;51.114;5.882;2023-07-31T15:09:28;21.09;75.95
68701;DHT22;55682;51.114;5.882;2023-07-31T15:11:56;21.08;76.44
68701;DHT22;55682;51.114;5.882;2023-07-31T15:14:23;21.16;76.29
68701;DHT22;55682;51.114;5.882;2023-07-31T15:16:48;21.07;76.89
68701;DHT22;55682;51.114;5.882;2023-07-31T15:19:14;21.14;77.08
68701;DHT22;55682;51.114;5.882;2023-07-31T15:21:40;21.18;77.06
68701;DHT22;55682;51.114;5.882;2023-07-31T15:24:06;21.15;76.97
68701;DHT22;55682;51.114;5.882;2023-07-31T15:26:32;21.19;77.03
68701;DHT22;55682;51.114;5.882;2023-07-31T15:29:02;21.10;77.31
68701;DHT22;55682;51.114;5.882;2023-07-31T15:31:31;20.96;77.77
68701;DHT22;55682;51.114;5.882;2023-07-31T15:33:57;21.02;77.76
68701;DHT22;55682;51.114;5.882;2023-07-31T15:36:22;20.99;77.67
68701;DHT22;55682;51.114;5.882;2023-07-31T15:38:48;20.88;78.03
68701;DHT22;55682;51.114;5.882;2023-07-31T15:41:19;20.93;78.00
68701;DHT22;55682;51.114;5.882;2023-07-31T15:43:45;20.74;78.81